Time;durP1;ratioP1;P1;durP2;ratioP2;P2;SDS_P1;SDS_P2;PMS_P1;PMS_P2;Temp;Humidity;BMP_temperature;BMP_pressure;BME280_temperature;BME280_humidity;BME280_pressure;Samples;Min_cycle;Max_cycle;Signal;HPM_P1;HPM_P2
2023/07/18 00:00:46;;;;;;;89.07;84.88;;;;;;;24.55;36.73;102018.09;5048936;28;20040;-72
2023/07/18 00:03:12;;;;;;;95.20;89.97;;;;;;;24.53;36.96;102016.78;5046940;28;20041;-72
2023/07/18 00:05:39;;;;;;;94.30;89.90;;;;;;;24.50;36.86;102017.41;5045533;28;20045;-72
2023/07/18 00:08:05;;;;;;;90.60;86.57;;;;;;;24.48;36.95;102022.41;5050331;28;20145;-71
2023/07/18 00:10:31;;;;;;;88.40;84.32;;;;;;;24.46;36.86;102014.41;5044007;28;20470;-72
2023/07/18 00:12:57;;;;;;;89.22;84.45;;;;;;;24.44;37.15;102015.81;5039976;28;20029;-73
2023/07/18 00:15:24;;;;;;;91.90;87.50;;;;;;;24.39;37.14;102014.81;5044495;28;20037;-73
2023/07/18 00:17:50;;;;;;;88.90;84.90;;;;;;;24.38;36.79;102023.38;5028087;28;20041;-72
2023/07/18 00:20:18;;;;;;;88.38;83.85;;;;;;;24.36;37.30;102028.38;5050214;28;20124;-72
2023/07/18 00:22:48;;;;;;;;;;;;;;;24.33;37.22;102029.00;5051038;28;20029;-74
2023/07/18 00:25:16;;;;;;;82.70;78.63;;;;;;;24.30;36.74;102032.38;5047186;28;20380;-72
2023/07/18 00:27:42;;;;;;;86.22;81.93;;;;;;;24.27;36.84;102033.00;5049686;28;20075;-73
2023/07/18 00:30:09;;;;;;;85.03;80.50;;;;;;;24.25;37.03;102032.47;5048699;28;20397;-71
2023/07/18 00:32:35;;;;;;;84.78;80.88;;;;;;;24.23;37.14;102035.53;5048826;28;20025;-72
2023/07/18 00:35:02;;;;;;;86.65;82.55;;;;;;;24.20;36.87;102027.88;5048726;28;20032;-72
2023/07/18 00:37:27;;;;;;;87.60;83.68;;;;;;;24.17;36.93;102021.00;5039538;28;20033;-71
2023/07/18 00:39:53;;;;;;;84.15;80.15;;;;;;;24.15;37.43;102020.47;5046946;28;20097;-71
2023/07/18 00:42:19;;;;;;;86.43;82.43;;;;;;;24.12;37.20;102017.53;5048471;28;20107;-72
2023/07/18 00:44:45;;;;;;;86.85;82.95;;;;;;;24.10;37.02;102019.75;5050316;28;20376;-74
2023/07/18 00:47:11;;;;;;;86.93;82.93;;;;;;;24.08;37.35;102016.47;5047292;28;20403;-72
2023/07/18 00:49:36;;;;;;;87.43;83.28;;;;;;;24.05;37.13;102006.06;5044227;28;20036;-72
2023/07/18 00:52:02;;;;;;;85.13;81.25;;;;;;;24.03;37.14;102008.28;5044540;28;20045;-72
2023/07/18 00:54:28;;;;;;;86.03;82.13;;;;;;;24.02;36.99;102012.19;5051403;28;20039;-72
2023/07/18 00:56:54;;;;;;;87.05;83.05;;;;;;;23.99;37.08;102008.09;5042532;28;20295;-71
2023/07/18 00:59:21;;;;;;;85.82;81.38;;;;;;;23.97;37.28;102004.81;5044582;28;20041;-73
2023/07/18 01:01:47;;;;;;;86.88;82.97;;;;;;;23.94;37.43;101999.91;5038573;28;20415;-71
2023/07/18 01:04:13;;;;;;;84.60;80.45;;;;;;;23.92;37.15;102000.19;5044975;28;20132;-71
2023/07/18 01:06:39;;;;;;;83.53;79.65;;;;;;;23.90;37.23;102004.38;5049107;28;20048;-69
2023/07/18 01:09:05;;;;;;;85.50;81.68;;;;;;;23.88;37.60;102001.91;5047407;28;20036;-71
2023/07/18 01:11:31;;;;;;;84.72;80.72;;;;;;;23.85;37.14;102001.72;5045933;28;20476;-74
2023/07/18 01:13:56;;;;;;;83.00;78.95;;;;;;;23.83;37.14;101998.44;5046985;28;20118;-72
2023/07/18 01:16:21;;;;;;;83.82;79.57;;;;;;;23.80;37.59;101996.28;5041433;28;20037;-71
2023/07/18 01:18:47;;;;;;;85.65;81.65;;;;;;;23.79;37.34;101991.88;5044641;28;20034;-72
2023/07/18 01:21:19;;;;;;;81.03;77.32;;;;;;;23.75;37.65;101988.91;5031372;28;20053;-71
2023/07/18 01:23:45;;;;;;;86.53;82.43;;;;;;;23.72;37.13;101997.75;5044334;28;20612;-73
2023/07/18 01:26:13;;;;;;;83.72;79.70;;;;;;;23.70;37.39;102000.00;5048073;28;20498;-71
2023/07/18 01:28:39;;;;;;;;;;;;;;;23.68;37.46;101993.94;5044094;28;20036;-70
2023/07/18 01:31:05;;;;;;;80.40;76.78;;;;;;;23.64;37.17;101992.94;5044572;28;19923;-73
2023/07/18 01:33:31;;;;;;;81.55;77.75;;;;;;;23.61;37.03;101988.84;5044049;28;20029;-71
2023/07/18 01:35:56;;;;;;;84.70;80.53;;;;;;;23.59;37.67;101985.56;5046994;28;20082;-74
2023/07/18 01:38:29;;;;;;;82.40;78.40;;;;;;;23.56;37.13;101991.66;5039144;28;20076;-71
2023/07/18 01:40:57;;;;;;;83.57;79.57;;;;;;;23.54;37.41;101993.91;5041364;28;20071;-71
2023/07/18 01:43:23;;;;;;;;;;;;;;;23.52;37.20;101982.34;5045904;28;20040;-72
2023/07/18 01:45:48;;;;;;;82.85;78.75;;;;;;;23.49;37.73;101974.69;5040476;28;19916;-71
2023/07/18 01:48:14;;;;;;;82.65;78.65;;;;;;;23.45;37.70;101979.97;5041848;28;20029;-73
2023/07/18 01:50:40;;;;;;;82.55;78.57;;;;;;;23.42;37.21;101980.56;5050113;28;20357;-79
2023/07/18 01:53:06;;;;;;;81.32;77.28;;;;;;;23.40;37.51;101973.72;5050847;28;20029;-73
2023/07/18 01:55:31;;;;;;;83.63;79.93;;;;;;;23.39;37.22;101972.91;5047966;28;20378;-71
2023/07/18 01:57:57;;;;;;;82.03;77.63;;;;;;;23.36;37.53;101975.44;5045925;28;20141;-73
2023/07/18 02:00:24;;;;;;;79.45;75.65;;;;;;;23.35;37.71;101971.03;5046862;28;20036;-71
2023/07/18 02:02:52;;;;;;;79.63;76.03;;;;;;;23.30;37.52;101970.00;5046936;28;20039;-72
2023/07/18 02:05:20;;;;;;;78.93;75.10;;;;;;;23.28;37.30;101966.75;5037419;28;20038;-72
2023/07/18 02:07:46;;;;;;;82.30;78.28;;;;;;;23.26;37.56;101974.50;5043242;28;20064;-71
2023/07/18 02:10:13;;;;;;;80.57;76.82;;;;;;;23.23;37.48;101977.81;5049266;28;20129;-72
2023/07/18 02:12:39;;;;;;;80.05;76.25;;;;;;;23.21;37.79;101974.56;5047178;28;20037;-70
2023/07/18 02:15:07;;;;;;;79.55;75.95;;;;;;;23.19;37.59;101973.22;5040082;28;20044;-72
2023/07/18 02:17:34;;;;;;;78.13;74.32;;;;;;;23.16;37.63;101971.88;5039313;28;20056;-73
2023/07/18 02:20:00;;;;;;;79.88;76.20;;;;;;;23.14;37.69;101973.31;5045654;28;20479;-72
2023/07/18 02:22:26;;;;;;;80.28;76.50;;;;;;;23.12;37.34;101976.34;5042574;28;20099;-69
2023/07/18 02:24:51;;;;;;;79.05;75.35;;;;;;;23.10;37.65;101968.34;5043311;28;20036;-73
2023/07/18 02:27:19;;;;;;;77.50;73.93;;;;;;;23.07;37.78;101960.69;5025705;28;20038;-71
2023/07/18 02:29:46;;;;;;;77.63;74.05;;;;;;;23.06;37.65;101958.25;5041734;28;20041;-75
2023/07/18 02:32:12;;;;;;;76.60;72.97;;;;;;;23.04;37.69;101958.53;5045436;28;20502;-72
2023/07/18 02:34:38;;;;;;;77.15;73.35;;;;;;;23.02;37.96;101962.72;5045925;28;20061;-73
2023/07/18 02:37:03;;;;;;;78.07;74.18;;;;;;;22.98;37.96;101957.00;5045465;28;20025;-71
2023/07/18 02:39:32;;;;;;;79.32;75.20;;;;;;;22.97;37.82;101957.25;5039469;28;20095;-72
2023/07/18 02:41:58;;;;;;;80.07;75.75;;;;;;;22.94;37.65;101964.16;5043848;28;20124;-73
2023/07/18 02:44:23;;;;;;;76.40;72.90;;;;;;;22.92;38.04;101960.88;5010173;28;20037;-73
2023/07/18 02:46:49;;;;;;;78.47;74.75;;;;;;;22.90;37.75;101958.41;5041183;28;20111;-73
2023/07/18 02:49:14;;;;;;;76.38;72.38;;;;;;;22.88;37.80;101959.81;5044322;28;20037;-73
2023/07/18 02:51:39;;;;;;;75.60;72.18;;;;;;;22.85;37.95;101952.97;5051900;28;20395;-72
2023/07/18 02:54:05;;;;;;;76.38;72.60;;;;;;;22.83;37.96;101952.47;5049197;28;20099;-72
2023/07/18 02:56:32;;;;;;;74.65;71.05;;;;;;;22.80;37.71;101949.47;5046428;28;20035;-71
2023/07/18 02:58:57;;;;;;;75.80;72.30;;;;;;;22.78;37.66;101949.78;5049158;28;20029;-72
2023/07/18 03:01:22;;;;;;;77.90;74.30;;;;;;;22.76;37.97;101946.50;5046703;28;20562;-71
2023/07/18 03:03:48;;;;;;;76.22;72.82;;;;;;;22.74;38.14;101951.47;5052071;28;20469;-77
2023/07/18 03:06:14;;;;;;;77.75;74.28;;;;;;;22.72;37.95;101950.13;5045577;28;20454;-70
2023/07/18 03:08:40;;;;;;;79.60;76.00;;;;;;;22.70;37.58;101953.19;5041599;28;20041;-74
2023/07/18 03:11:05;;;;;;;80.82;77.13;;;;;;;22.68;37.83;101955.44;5048614;28;20591;-73
2023/07/18 03:13:31;;;;;;;75.78;72.13;;;;;;;22.67;37.70;101951.03;5051054;28;20397;-73
2023/07/18 03:15:56;;;;;;;76.78;73.07;;;;;;;22.64;37.73;101951.63;5048944;28;20029;-74
2023/07/18 03:18:22;;;;;;;78.55;74.95;;;;;;;22.61;38.13;101958.53;5045816;28;20522;-75
2023/07/18 03:20:48;;;;;;;75.68;71.93;;;;;;;22.60;37.98;101956.06;5048723;28;20057;-72
2023/07/18 03:23:14;;;;;;;76.07;72.50;;;;;;;22.57;38.16;101959.41;5046473;28;20039;-71
2023/07/18 03:25:39;;;;;;;76.13;72.63;;;;;;;22.55;37.95;101958.88;5052026;28;20041;-71
2023/07/18 03:28:04;;;;;;;76.43;72.72;;;;;;;22.53;37.79;101961.09;5034326;28;20033;-71
2023/07/18 03:30:30;;;;;;;78.95;75.45;;;;;;;22.51;37.79;101957.84;5045860;28;20060;-74
2023/07/18 03:32:56;;;;;;;76.72;73.13;;;;;;;22.47;37.74;101950.16;5052672;28;20116;-70
2023/07/18 03:35:21;;;;;;;74.82;71.22;;;;;;;22.45;38.09;101949.66;5049865;28;20029;-71
2023/07/18 03:37:47;;;;;;;76.65;72.97;;;;;;;22.43;38.06;101946.38;5047435;28;20040;-71
2023/07/18 03:40:15;;;;;;;76.35;72.65;;;;;;;22.41;37.49;101947.78;5045603;28;20025;-73
2023/07/18 03:42:41;;;;;;;;;;;;;;;22.40;38.24;101951.63;5045859;28;20384;-72
2023/07/18 03:45:07;;;;;;;76.00;72.40;;;;;;;22.36;38.09;101950.59;5050504;28;19912;-74
2023/07/18 03:47:33;;;;;;;71.25;67.85;;;;;;;22.34;38.18;101947.31;5033564;28;20037;-71
2023/07/18 03:49:58;;;;;;;73.82;70.43;;;;;;;22.33;38.20;101956.69;5041431;28;20458;-72
2023/07/18 03:52:23;;;;;;;72.53;69.22;;;;;;;22.29;37.65;101952.88;5043495;28;20044;-73
2023/07/18 03:54:49;;;;;;;75.82;72.38;;;;;;;22.28;37.81;101948.50;5028486;28;20071;-75
2023/07/18 03:57:14;;;;;;;73.95;70.30;;;;;;;22.25;38.15;101949.84;5048329;28;20400;-72
2023/07/18 03:59:40;;;;;;;72.53;69.13;;;;;;;22.24;38.08;101953.75;5046331;28;20037;-71
2023/07/18 04:02:05;;;;;;;75.43;71.82;;;;;;;22.21;38.26;101946.06;5049404;28;20527;-71
2023/07/18 04:04:31;;;;;;;72.40;69.00;;;;;;;22.19;38.32;101946.34;5030317;28;20033;-72
2023/07/18 04:06:56;;;;;;;74.18;70.82;;;;;;;22.17;38.31;101937.53;5050328;28;20033;-73
2023/07/18 04:09:22;;;;;;;74.20;70.60;;;;;;;22.16;38.16;101935.09;5048927;28;20127;-71
2023/07/18 04:11:47;;;;;;;75.60;72.10;;;;;;;22.14;37.87;101937.31;5049691;28;20041;-70
2023/07/18 04:14:13;;;;;;;70.85;67.43;;;;;;;22.11;38.24;101926.91;5042666;28;20033;-74
2023/07/18 04:16:38;;;;;;;73.97;70.40;;;;;;;22.09;38.31;101931.84;5046324;28;20047;-71
2023/07/18 04:19:05;;;;;;;74.55;70.95;;;;;;;22.08;38.00;101935.75;5048080;28;20121;-73
2023/07/18 04:21:30;;;;;;;73.75;70.13;;;;;;;22.04;37.99;101927.22;5045630;28;20056;-73
2023/07/18 04:23:56;;;;;;;70.35;67.15;;;;;;;22.03;38.27;101922.84;5042083;28;20037;-76
2023/07/18 04:26:21;;;;;;;74.47;70.97;;;;;;;22.00;38.04;101927.00;5046534;28;20092;-72
2023/07/18 04:28:48;;;;;;;71.53;67.97;;;;;;;21.98;38.04;101920.16;5047705;28;20041;-74
2023/07/18 04:31:13;;;;;;;72.45;68.97;;;;;;;21.97;38.36;101924.84;5048189;28;20056;-72
2023/07/18 04:33:39;;;;;;;71.03;67.63;;;;;;;21.94;37.98;101928.16;5046825;28;20512;-73
2023/07/18 04:36:06;;;;;;;71.10;67.88;;;;;;;21.93;38.00;101925.72;5025980;28;20052;-71
2023/07/18 04:38:32;;;;;;;72.78;69.00;;;;;;;21.91;38.47;101927.91;5047533;28;20075;-71
2023/07/18 04:40:58;;;;;;;73.53;70.00;;;;;;;21.89;38.30;101922.69;5048448;28;20503;-71
2023/07/18 04:43:23;;;;;;;72.10;68.50;;;;;;;21.87;38.22;101924.91;5044329;28;20185;-74
2023/07/18 04:45:49;;;;;;;71.50;67.40;;;;;;;21.85;38.52;101918.91;5043857;28;20041;-73
2023/07/18 04:48:16;;;;;;;73.65;70.15;;;;;;;21.82;38.47;101917.56;5046613;28;20033;-70
2023/07/18 04:50:42;;;;;;;70.78;67.55;;;;;;;21.80;38.66;101917.03;5042877;28;20541;-71
2023/07/18 04:53:08;;;;;;;71.65;68.35;;;;;;;21.78;38.35;101916.50;5045195;28;20053;-71
2023/07/18 04:55:34;;;;;;;72.25;68.68;;;;;;;21.76;38.13;101915.94;5045013;28;20128;-72
2023/07/18 04:58:02;;;;;;;71.15;67.75;;;;;;;21.75;38.19;101917.06;5044687;28;20037;-73
2023/07/18 05:00:29;;;;;;;73.15;69.75;;;;;;;21.73;38.58;101919.28;5043321;28;20029;-71
2023/07/18 05:02:54;;;;;;;71.32;67.95;;;;;;;21.72;38.67;101914.91;5044260;28;20036;-72
2023/07/18 05:05:20;;;;;;;70.57;67.32;;;;;;;21.71;38.48;101915.19;5047639;28;20048;-72
2023/07/18 05:07:47;;;;;;;72.00;68.68;;;;;;;21.69;38.59;101914.66;5033049;28;20026;-71
2023/07/18 05:10:13;;;;;;;72.10;68.80;;;;;;;21.68;38.31;101904.78;5043121;28;20041;-72
2023/07/18 05:12:39;;;;;;;74.75;71.35;;;;;;;21.66;38.53;101916.06;5041277;28;20036;-73
2023/07/18 05:15:05;;;;;;;73.20;69.60;;;;;;;21.65;38.79;101910.84;5041424;28;20396;-75
2023/07/18 05:17:30;;;;;;;70.20;66.97;;;;;;;21.63;38.56;101908.38;5048425;28;20491;-71
2023/07/18 05:19:56;;;;;;;73.32;69.93;;;;;;;21.61;38.43;101916.09;5050108;28;20120;-72
2023/07/18 05:22:22;;;;;;;72.70;69.35;;;;;;;21.61;38.59;101916.91;5048257;28;20056;-71
2023/07/18 05:24:47;;;;;;;74.00;70.40;;;;;;;21.60;38.96;101909.78;5048367;28;20041;-72
2023/07/18 05:27:13;;;;;;;72.68;69.25;;;;;;;21.59;38.80;101896.31;5032677;28;20042;-70
2023/07/18 05:29:38;;;;;;;71.85;68.55;;;;;;;21.58;38.72;101903.75;5040736;28;20029;-71
2023/07/18 05:32:05;;;;;;;71.20;67.90;;;;;;;21.59;38.86;101904.56;5049910;28;20044;-71
2023/07/18 05:34:32;;;;;;;70.53;67.13;;;;;;;21.59;38.82;101901.81;5040918;28;20033;-71
2023/07/18 05:36:58;;;;;;;67.60;64.13;;;;;;;21.59;39.03;101905.38;5040935;28;20164;-73
2023/07/18 05:39:23;;;;;;;67.43;64.22;;;;;;;21.58;38.93;101909.25;5048185;28;20128;-73
2023/07/18 05:41:49;;;;;;;68.70;65.57;;;;;;;21.58;38.98;101914.75;5048215;28;20492;-72
2023/07/18 05:44:16;;;;;;;70.40;67.10;;;;;;;21.59;38.77;101921.88;5048587;28;20063;-74
2023/07/18 05:46:42;;;;;;;68.97;65.78;;;;;;;21.58;38.81;101913.94;5048921;28;20442;-72
2023/07/18 05:49:07;;;;;;;69.47;66.03;;;;;;;21.58;39.11;101917.50;5034839;28;20037;-72
2023/07/18 05:51:33;;;;;;;72.88;69.28;;;;;;;21.58;38.74;101923.00;5047050;28;20040;-72
2023/07/18 05:53:58;;;;;;;69.72;66.53;;;;;;;21.60;38.69;101928.22;5047102;28;20469;-72
2023/07/18 05:56:23;;;;;;;68.57;65.47;;;;;;;21.59;38.99;101927.38;5041911;28;20172;-74
2023/07/18 05:58:49;;;;;;;70.10;66.47;;;;;;;21.60;39.27;101929.03;5041011;28;20052;-78
2023/07/18 06:01:15;;;;;;;70.65;66.95;;;;;;;21.59;39.27;101921.88;5043582;28;20041;-75
2023/07/18 06:03:40;;;;;;;67.78;64.60;;;;;;;21.61;39.23;101927.09;5030979;28;20065;-73
2023/07/18 06:06:07;;;;;;;70.28;66.88;;;;;;;21.60;39.17;101923.53;5049101;28;20193;-75
2023/07/18 06:08:32;;;;;;;71.30;67.70;;;;;;;21.60;38.91;101923.53;5048353;28;20032;-75
2023/07/18 06:10:58;;;;;;;69.63;66.22;;;;;;;21.61;38.98;101927.09;5039903;28;20037;-76
2023/07/18 06:13:23;;;;;;;70.72;67.43;;;;;;;21.60;39.16;101926.28;5044627;28;20094;-74
2023/07/18 06:15:50;;;;;;;69.35;66.13;;;;;;;21.61;39.38;101924.34;5049212;28;20041;-71
2023/07/18 06:18:16;;;;;;;70.68;67.22;;;;;;;21.63;39.22;101921.31;5049444;28;20033;-74
2023/07/18 06:20:41;;;;;;;68.70;65.40;;;;;;;21.63;39.48;101926.81;5046768;28;20054;-73
2023/07/18 06:23:07;;;;;;;72.25;68.85;;;;;;;21.61;39.58;101921.59;5053312;28;20125;-75
2023/07/18 06:25:33;;;;;;;69.78;66.43;;;;;;;21.60;39.76;101925.47;5049912;28;20032;-73
2023/07/18 06:27:58;;;;;;;70.00;66.75;;;;;;;21.58;39.58;101924.94;5055895;28;20029;-71
2023/07/18 06:30:24;;;;;;;72.22;68.85;;;;;;;21.56;39.80;101919.72;5039001;28;20040;-74
2023/07/18 06:32:49;;;;;;;70.72;67.13;;;;;;;21.57;39.58;101924.13;5053520;28;20488;-72
2023/07/18 06:35:15;;;;;;;69.07;65.88;;;;;;;21.57;39.94;101920.53;5049950;28;20040;-72
2023/07/18 06:37:41;;;;;;;70.07;66.68;;;;;;;21.57;39.87;101926.88;5055364;28;20476;-72
2023/07/18 06:40:10;;;;;;;70.35;67.03;;;;;;;21.58;40.27;101922.19;5048306;28;20052;-74
2023/07/18 06:42:36;;;;;;;70.15;66.78;;;;;;;21.59;40.07;101923.81;5043989;28;20487;-72
2023/07/18 06:45:03;;;;;;;70.00;66.72;;;;;;;21.62;40.18;101923.25;5052684;28;20040;-72
2023/07/18 06:47:29;;;;;;;71.32;67.28;;;;;;;21.65;40.22;101919.91;5046637;28;20037;-73
2023/07/18 06:49:54;;;;;;;71.57;67.78;;;;;;;21.66;40.49;101918.78;5052894;28;20099;-73
2023/07/18 06:52:20;;;;;;;71.63;68.32;;;;;;;21.71;40.15;101920.69;5049077;28;20171;-76
2023/07/18 06:54:46;;;;;;;70.20;66.75;;;;;;;21.73;40.62;101922.03;5034219;28;20045;-72
2023/07/18 06:57:12;;;;;;;69.72;66.28;;;;;;;21.77;40.42;101914.00;5040454;28;20038;-72
2023/07/18 06:59:38;;;;;;;69.95;66.57;;;;;;;21.78;40.29;101913.75;5048820;28;20041;-72
2023/07/18 07:02:03;;;;;;;72.20;68.43;;;;;;;21.81;40.78;101918.66;5055972;28;20051;-72
2023/07/18 07:04:29;;;;;;;72.90;69.32;;;;;;;21.85;40.64;101910.66;5054961;28;20408;-72
2023/07/18 07:06:54;;;;;;;70.68;67.38;;;;;;;21.88;40.70;101915.56;5055875;28;20028;-72
2023/07/18 07:09:21;;;;;;;72.70;69.28;;;;;;;21.91;40.82;101914.16;5054881;28;20040;-72
2023/07/18 07:11:46;;;;;;;73.22;69.53;;;;;;;21.94;41.16;101911.66;5046771;28;20029;-71
2023/07/18 07:14:12;;;;;;;73.50;70.15;;;;;;;21.96;40.85;101908.63;5041488;28;20404;-73
2023/07/18 07:16:37;;;;;;;72.03;68.60;;;;;;;21.99;41.40;101914.34;5049511;28;20369;-72
2023/07/18 07:19:05;;;;;;;74.53;70.50;;;;;;;22.02;41.47;101912.94;5055523;28;20128;-72
2023/07/18 07:21:31;;;;;;;77.72;73.80;;;;;;;22.06;41.45;101913.19;5042788;28;20080;-72
2023/07/18 07:23:56;;;;;;;74.45;71.05;;;;;;;22.08;41.45;101900.78;5045218;28;20400;-71
2023/07/18 07:26:22;;;;;;;75.68;70.72;;;;;;;22.11;41.70;101902.94;5045478;28;20042;-74
2023/07/18 07:28:47;;;;;;;74.25;70.80;;;;;;;22.16;41.45;101908.38;5052343;28;20504;-73
2023/07/18 07:31:14;;;;;;;73.85;70.10;;;;;;;22.20;41.22;101919.66;5054161;28;20111;-73
2023/07/18 07:33:40;;;;;;;72.35;69.05;;;;;;;22.24;41.26;101915.22;5049469;28;20040;-72
2023/07/18 07:36:06;;;;;;;75.63;72.10;;;;;;;22.28;41.20;101908.00;5051140;28;20038;-71
2023/07/18 07:38:32;;;;;;;77.43;73.72;;;;;;;22.33;41.35;101910.69;5052835;28;20061;-73
2023/07/18 07:40:57;;;;;;;76.30;72.30;;;;;;;22.37;41.59;101913.69;5044816;28;20071;-76
2023/07/18 07:43:23;;;;;;;77.97;74.22;;;;;;;22.41;41.55;101909.22;5050893;28;20042;-74
2023/07/18 07:45:48;;;;;;;78.25;74.45;;;;;;;22.44;41.76;101909.44;5047232;28;20034;-72
2023/07/18 07:48:14;;;;;;;80.03;76.43;;;;;;;22.51;41.57;101902.78;5048534;28;20033;-73
2023/07/18 07:50:39;;;;;;;77.90;73.97;;;;;;;22.56;41.67;101911.78;5048628;28;20041;-72
2023/07/18 07:53:04;;;;;;;76.68;73.07;;;;;;;22.62;41.51;101907.03;5050157;28;20044;-72
2023/07/18 07:55:30;;;;;;;79.60;75.78;;;;;;;22.66;41.61;101913.59;5033835;28;20464;-73
2023/07/18 07:57:55;;;;;;;76.70;72.82;;;;;;;22.70;41.57;101903.59;5051474;28;20036;-72
2023/07/18 08:00:21;;;;;;;78.93;75.38;;;;;;;22.75;41.76;101910.97;5046878;28;20033;-75
2023/07/18 08:02:46;;;;;;;79.13;75.03;;;;;;;22.80;41.87;101908.97;5043212;28;20123;-72
2023/07/18 08:05:12;;;;;;;79.05;75.55;;;;;;;22.86;41.65;101899.53;5052099;28;20611;-72
2023/07/18 08:07:39;;;;;;;78.63;74.72;;;;;;;22.92;41.59;101894.75;5037817;28;20034;-75
2023/07/18 08:10:05;;;;;;;80.38;76.63;;;;;;;22.99;41.85;101892.47;5050074;28;20048;-73
2023/07/18 08:12:30;;;;;;;81.75;77.95;;;;;;;23.04;41.86;101895.16;5045725;28;20049;-73
2023/07/18 08:14:56;;;;;;;82.50;78.45;;;;;;;23.09;41.44;101889.56;5050281;28;20029;-74
2023/07/18 08:17:21;;;;;;;83.25;79.43;;;;;;;23.17;41.87;101898.28;5049532;28;20036;-72
2023/07/18 08:19:47;;;;;;;84.38;80.28;;;;;;;23.23;41.44;101892.38;5050214;28;20033;-72
2023/07/18 08:22:13;;;;;;;80.35;76.65;;;;;;;23.30;41.55;101895.56;5047290;28;20148;-72
2023/07/18 08:24:39;;;;;;;86.10;82.07;;;;;;;23.39;41.47;101903.16;5048551;28;20061;-73
2023/07/18 08:27:05;;;;;;;83.40;79.65;;;;;;;23.45;41.85;101897.25;5051111;28;20053;-72
2023/07/18 08:29:33;;;;;;;84.93;81.13;;;;;;;23.53;41.57;101895.72;5043158;28;20053;-73
2023/07/18 08:31:58;;;;;;;85.95;81.88;;;;;;;23.60;41.28;101887.88;5045361;28;20045;-73
2023/07/18 08:34:25;;;;;;;82.50;78.57;;;;;;;23.68;41.52;101891.88;5048216;28;20519;-74
2023/07/18 08:36:50;;;;;;;85.43;81.63;;;;;;;23.74;41.29;101885.19;5034173;28;20044;-75
2023/07/18 08:39:16;;;;;;;84.18;80.20;;;;;;;23.82;41.27;101889.19;5045675;28;20038;-74
2023/07/18 08:41:46;;;;;;;84.93;81.13;;;;;;;23.90;41.34;101880.22;5038516;28;20099;-71
2023/07/18 08:44:15;;;;;;;83.47;79.75;;;;;;;23.97;41.02;101875.91;5044867;28;20120;-78
2023/07/18 08:46:42;;;;;;;86.88;82.85;;;;;;;24.05;41.41;101874.38;5045544;28;20056;-72
2023/07/18 08:49:14;;;;;;;86.28;82.28;;;;;;;24.13;41.31;101878.38;5041168;28;20069;-74
2023/07/18 08:51:41;;;;;;;88.45;84.03;;;;;;;24.22;41.44;101879.28;5030940;28;20041;-72
2023/07/18 08:54:06;;;;;;;91.57;87.43;;;;;;;24.29;41.14;101871.41;5039950;28;20478;-73
2023/07/18 08:56:32;;;;;;;86.28;82.38;;;;;;;24.38;41.15;101874.25;5021357;28;20044;-72
2023/07/18 08:59:00;;;;;;;86.53;82.10;;;;;;;24.47;40.93;101879.88;5049903;28;20040;-71
2023/07/18 09:01:25;;;;;;;88.43;84.43;;;;;;;24.54;40.97;101870.06;5045084;28;20171;-71
2023/07/18 09:03:51;;;;;;;87.15;83.25;;;;;;;24.63;41.07;101859.09;5048645;28;20112;-71
2023/07/18 09:06:19;;;;;;;92.07;87.75;;;;;;;24.73;40.65;101869.91;5045200;28;20127;-71
2023/07/18 09:08:45;;;;;;;94.07;89.73;;;;;;;24.82;40.65;101864.47;5048582;28;20040;-71
2023/07/18 09:11:12;;;;;;;89.15;85.05;;;;;;;24.90;40.64;101860.97;5048905;28;20065;-73
2023/07/18 09:13:40;;;;;;;94.07;89.30;;;;;;;25.00;40.32;101854.38;5051169;28;20032;-72
2023/07/18 09:16:20;;;;;;;92.47;87.43;;;;;;;25.10;40.28;101853.28;5043004;28;20398;-71
2023/07/18 09:18:55;;;;;;;89.25;85.40;;;;;;;25.18;39.84;101836.81;5049143;28;20226;-72
2023/07/18 09:21:22;;;;;;;92.75;88.65;;;;;;;25.26;39.46;101836.03;5045454;28;20045;-70
2023/07/18 09:23:48;;;;;;;91.55;87.35;;;;;;;25.36;39.98;101828.63;5035449;28;20045;-71
2023/07/18 09:26:19;;;;;;;89.95;86.05;;;;;;;25.44;39.37;101828.66;5042938;28;20033;-72
2023/07/18 09:28:45;;;;;;;96.65;92.00;;;;;;;25.54;39.36;101830.34;5034295;28;20396;-74
2023/07/18 09:31:25;;;;;;;94.63;90.47;;;;;;;25.64;39.58;101826.47;5048130;28;20048;-72
2023/07/18 09:33:54;;;;;;;97.97;93.68;;;;;;;25.71;38.86;101832.38;5031148;28;20045;-72
2023/07/18 09:36:23;;;;;;;;;;;;;;;25.79;39.60;101833.53;5041305;28;20057;-72
2023/07/18 09:38:49;;;;;;;95.30;91.10;;;;;;;25.87;39.86;101830.81;5038619;28;19967;-72
2023/07/18 09:41:19;;;;;;;95.35;91.15;;;;;;;25.96;39.27;101830.06;5042766;28;20029;-72
2023/07/18 09:43:45;;;;;;;93.50;89.40;;;;;;;26.03;39.23;101838.69;5047628;28;20431;-72
2023/07/18 09:46:13;;;;;;;97.68;93.38;;;;;;;26.11;38.42;101835.97;5042873;28;20504;-71
2023/07/18 09:48:40;;;;;;;99.10;94.70;;;;;;;26.20;38.77;101835.97;5038066;28;20067;-71
2023/07/18 09:51:10;;;;;;;94.45;90.28;;;;;;;26.27;38.32;101828.00;5044298;28;20055;-72
2023/07/18 09:53:37;;;;;;;98.25;94.03;;;;;;;26.36;38.60;101829.97;5046003;28;20046;-72
2023/07/18 09:56:04;;;;;;;98.55;94.00;;;;;;;26.43;38.73;101825.56;5047587;28;20430;-72
2023/07/18 09:58:32;;;;;;;100.78;96.13;;;;;;;26.51;38.50;101823.94;5041532;28;20033;-72
2023/07/18 10:00:58;;;;;;;102.63;97.93;;;;;;;26.58;38.60;101806.88;5031974;28;20064;-73
2023/07/18 10:03:24;;;;;;;104.75;100.25;;;;;;;26.64;38.10;101817.47;5034915;28;20036;-73
2023/07/18 10:05:50;;;;;;;105.93;101.13;;;;;;;26.72;38.03;101808.34;5036928;28;20121;-72
2023/07/18 10:08:17;;;;;;;105.47;100.97;;;;;;;26.79;37.26;101802.31;5028865;28;20117;-72
2023/07/18 10:10:59;;;;;;;107.32;102.72;;;;;;;26.88;37.06;101792.00;5045091;28;20029;-73
2023/07/18 10:13:24;;;;;;;107.22;102.53;;;;;;;26.95;37.23;101797.06;5043817;28;20052;-72
2023/07/18 10:16:15;;;;;;;103.07;98.60;;;;;;;27.05;36.85;101790.38;5046252;28;20337;-74
2023/07/18 10:18:51;;;;;;;106.63;101.95;;;;;;;27.11;36.68;101784.31;5032650;28;20034;-73
2023/07/18 10:21:32;;;;;;;105.53;100.93;;;;;;;27.19;36.35;101789.06;5032253;28;20091;-73
2023/07/18 10:24:21;;;;;;;109.18;104.57;;;;;;;27.27;36.64;101789.38;5042239;28;20053;-74
2023/07/18 10:26:48;;;;;;;106.13;101.60;;;;;;;27.34;36.49;101778.56;5038437;28;20040;-72
2023/07/18 10:29:14;;;;;;;110.07;105.25;;;;;;;27.41;36.50;101776.09;5047530;28;20147;-72
2023/07/18 10:31:39;;;;;;;112.03;107.13;;;;;;;27.48;36.30;101772.81;5042999;28;20132;-72
2023/07/18 10:34:18;;;;;;;119.70;114.07;;;;;;;27.55;36.20;101779.47;5037583;28;20045;-73
2023/07/18 10:37:00;;;;;;;109.53;104.82;;;;;;;27.61;36.88;101769.78;5034832;28;20044;-72
2023/07/18 10:39:49;;;;;;;113.40;108.22;;;;;;;27.70;36.25;101774.50;5045302;28;20124;-73
2023/07/18 10:42:19;;;;;;;109.60;104.95;;;;;;;27.76;36.09;101768.41;5032375;28;20113;-73
2023/07/18 10:44:45;;;;;;;113.97;109.13;;;;;;;27.82;36.05;101775.44;5040100;28;20037;-72
2023/07/18 10:47:18;;;;;;;111.30;106.60;;;;;;;27.89;35.26;101776.88;5046994;28;20049;-73
2023/07/18 10:49:45;;;;;;;115.22;110.28;;;;;;;27.96;35.33;101766.03;5048831;28;20029;-74
2023/07/18 10:52:11;;;;;;;113.80;108.50;;;;;;;28.02;34.79;101765.53;5041704;28;20700;-72
2023/07/18 10:54:36;;;;;;;115.88;110.85;;;;;;;28.10;34.82;101774.09;5046599;28;20431;-73
2023/07/18 10:57:03;;;;;;;115.47;110.60;;;;;;;28.15;35.17;101763.63;5048968;28;20477;-74
2023/07/18 10:59:29;;;;;;;114.07;109.18;;;;;;;28.22;34.91;101757.53;5047572;28;20033;-73
2023/07/18 11:01:58;;;;;;;117.40;112.40;;;;;;;28.28;34.92;101758.97;5047269;28;20059;-74
2023/07/18 11:04:24;;;;;;;115.03;110.13;;;;;;;28.34;35.55;101770.69;5038362;28;20058;-73
2023/07/18 11:06:54;;;;;;;115.07;110.07;;;;;;;28.41;34.83;101768.97;5041373;28;20037;-72